createdAt,value
2018-01-13T00:00:21.635Z,54.70
2018-01-13T00:02:51.718Z,54.80
2018-01-13T00:05:21.064Z,54.60
2018-01-13T00:07:51.136Z,54.90
2018-01-13T00:10:21.199Z,54.90
2018-01-13T00:12:51.253Z,54.90
2018-01-13T00:15:20.591Z,54.90
2018-01-13T00:17:49.849Z,54.80
2018-01-13T00:20:19.450Z,55.00
2018-01-13T00:22:48.872Z,54.90
2018-01-13T00:25:18.361Z,55.00
2018-01-13T00:27:47.634Z,55.60
2018-01-13T00:30:17.707Z,55.10
2018-01-13T00:32:47.080Z,55.00
2018-01-13T00:35:16.354Z,55.20
2018-01-13T00:37:46.508Z,55.30
2018-01-13T00:40:15.904Z,55.30
2018-01-13T00:42:45.409Z,55.40
2018-01-13T00:45:14.881Z,55.50
2018-01-13T00:47:44.168Z,55.40
2018-01-13T00:50:13.488Z,55.60
2018-01-13T00:52:43.661Z,55.80
2018-01-13T00:55:12.940Z,55.60
2018-01-13T00:57:42.413Z,55.70
2018-01-13T01:00:12.496Z,55.80
2018-01-13T01:02:41.769Z,55.80
2018-01-13T01:05:11.058Z,55.90
2018-01-13T01:07:40.397Z,55.90
2018-01-13T01:10:09.955Z,56.00
2018-01-13T01:12:39.215Z,56.00
2018-01-13T01:15:08.492Z,55.80
2018-01-13T01:17:37.772Z,55.80
2018-01-13T01:20:07.188Z,56.00
2018-01-13T01:22:36.619Z,56.20
2018-01-13T01:25:05.886Z,56.30
2018-01-13T01:27:35.248Z,56.30
2018-01-13T01:30:05.304Z,56.30
2018-01-13T01:32:34.576Z,56.20
2018-01-13T01:35:04.516Z,56.40
2018-01-13T01:37:33.801Z,56.40
2018-01-13T06:45:33.720Z,64.50
2018-01-13T06:48:03.164Z,64.50
2018-01-13T06:50:32.680Z,64.50
2018-01-13T06:53:01.970Z,63.90
2018-01-13T06:55:31.270Z,63.50
2018-01-13T06:58:00.719Z,63.10
2018-01-13T07:00:30.778Z,62.50
2018-01-13T09:43:41.546Z,64.60
2018-01-13T09:46:10.883Z,64.40
2018-01-13T09:48:40.362Z,63.70
2018-01-13T09:51:09.751Z,63.50
2018-01-13T09:53:39.055Z,63.10
2018-01-13T09:56:08.620Z,62.70
2018-01-13T09:58:38.658Z,62.20
2018-01-13T10:01:08.692Z,61.90
2018-01-13T10:03:38.013Z,61.90
2018-01-13T10:06:07.474Z,61.80
2018-01-13T10:08:37.995Z,61.90
2018-01-13T10:11:08.043Z,61.80
2018-01-13T10:13:37.307Z,61.70
2018-01-13T10:16:07.562Z,61.60
2018-01-13T10:18:37.020Z,61.60
2018-01-13T10:21:07.545Z,61.60
2018-01-13T10:23:37.002Z,61.50
2018-01-13T10:26:06.567Z,61.20
2018-01-13T10:28:36.135Z,61.20
2018-01-13T10:31:05.645Z,61.00
2018-01-13T10:33:35.193Z,60.60
2018-01-13T10:36:04.565Z,60.60
2018-01-13T10:38:34.353Z,61.20
2018-01-13T10:41:03.998Z,60.40
2018-01-13T10:43:33.611Z,60.10
2018-01-13T10:46:02.919Z,60.00
2018-01-13T10:48:32.549Z,59.90
2018-01-13T10:51:03.133Z,59.60
2018-01-13T10:53:32.650Z,59.50
2018-01-13T10:56:02.008Z,59.30
2018-01-13T10:58:31.298Z,59.30
2018-01-13T11:01:01.334Z,58.80
2018-01-13T11:03:30.642Z,58.80
2018-01-13T11:05:59.729Z,58.50
2018-01-13T11:08:29.581Z,58.30
2018-01-13T11:10:59.227Z,58.10
2018-01-13T11:13:29.784Z,57.60
2018-01-13T11:15:59.201Z,57.60
2018-01-13T11:18:29.476Z,57.50
2018-01-13T11:20:59.698Z,57.30
2018-01-13T11:23:30.134Z,57.20
2018-01-13T11:26:00.345Z,56.90
2018-01-13T11:28:30.510Z,56.20
2018-01-13T11:31:00.596Z,56.60
2018-01-13T11:33:30.643Z,56.30
2018-01-13T11:35:59.923Z,56.30
2018-01-13T11:38:30.601Z,56.00
2018-01-13T11:41:00.047Z,56.00
2018-01-13T11:43:30.288Z,56.00
2018-01-13T11:45:59.732Z,56.00
2018-01-13T11:48:29.326Z,55.90
2018-01-13T11:50:58.746Z,55.80
2018-01-13T11:53:28.427Z,55.70
2018-01-13T11:55:57.728Z,55.70
2018-01-13T11:58:27.011Z,55.80
2018-01-13T12:00:56.268Z,55.80
2018-01-13T12:03:25.624Z,56.10
2018-01-13T12:05:54.953Z,56.70
2018-01-13T12:08:24.232Z,56.90
2018-01-13T12:10:53.528Z,57.60
2018-01-13T12:13:22.973Z,52.40
2018-01-13T12:15:52.044Z,46.20
2018-01-13T12:18:21.310Z,47.10
2018-01-13T12:20:51.504Z,42.30
2018-01-13T12:23:20.764Z,42.30
2018-01-13T12:25:49.874Z,46.70
2018-01-13T12:28:19.257Z,49.40
2018-01-13T12:30:48.595Z,53.10
2018-01-13T12:33:17.865Z,54.60
2018-01-13T12:35:47.133Z,55.00
2018-01-13T12:38:17.200Z,55.20
2018-01-13T12:40:46.590Z,55.20
2018-01-13T12:43:15.898Z,55.10
2018-01-13T12:45:45.689Z,55.60
2018-01-13T12:48:15.384Z,54.80
2018-01-13T12:50:44.661Z,54.60
2018-01-13T12:53:14.726Z,55.00
2018-01-13T12:55:43.996Z,54.40
2018-01-13T12:58:14.047Z,54.40
2018-01-13T13:00:43.324Z,54.40
2018-01-13T13:03:12.502Z,55.00
2018-01-13T13:05:42.561Z,55.20
2018-01-13T13:08:11.844Z,55.70
2018-01-13T13:10:41.355Z,55.00
2018-01-13T13:13:10.630Z,54.80
2018-01-13T13:15:41.003Z,54.60
2018-01-13T13:18:10.281Z,54.60
2018-01-13T13:20:39.559Z,54.60
2018-01-13T13:23:09.722Z,54.40
2018-01-13T13:25:39.016Z,54.40
2018-01-13T13:28:08.822Z,54.40
2018-01-13T13:30:38.121Z,54.30
2018-01-13T13:33:07.592Z,54.30
2018-01-13T13:35:38.924Z,54.30
2018-01-13T13:38:08.687Z,54.20
2018-01-13T13:40:38.911Z,54.30
2018-01-13T13:43:08.254Z,54.30
2018-01-13T13:45:37.553Z,54.20
2018-01-13T13:48:06.881Z,54.20
2018-01-13T13:50:37.149Z,54.20
2018-01-13T13:53:06.417Z,54.20
2018-01-13T13:55:35.944Z,54.20
2018-01-13T13:58:05.509Z,54.20
2018-01-13T14:00:35.553Z,54.30
2018-01-13T14:03:05.395Z,54.20
2018-01-13T14:05:35.012Z,54.40
2018-01-13T14:08:04.744Z,54.80
2018-01-13T14:10:34.368Z,55.20
2018-01-13T14:13:04.502Z,56.10
2018-01-13T14:15:34.853Z,55.70
2018-01-13T14:18:04.689Z,55.70
2018-01-13T14:20:34.074Z,55.90
2018-01-13T14:23:03.421Z,56.10
2018-01-13T14:25:32.849Z,56.10
2018-01-13T14:28:03.472Z,56.40
2018-01-13T14:30:33.514Z,55.60
2018-01-13T14:33:02.784Z,55.50
2018-01-13T14:35:32.770Z,55.90
2018-01-13T14:38:03.178Z,55.90
2018-01-13T14:40:33.272Z,56.10
2018-01-13T14:43:02.715Z,56.00
2018-01-13T14:45:32.118Z,56.10
2018-01-13T14:48:01.389Z,56.00
2018-01-13T14:50:30.679Z,56.00
2018-01-13T14:53:00.101Z,56.00
2018-01-13T14:55:29.451Z,56.00
2018-01-13T14:57:59.504Z,56.20
2018-01-13T15:00:28.639Z,56.30
2018-01-13T15:02:58.025Z,56.40
2018-01-13T15:05:27.348Z,56.40
2018-01-13T15:07:56.741Z,56.50
2018-01-13T15:10:26.030Z,56.60
2018-01-13T15:12:55.325Z,56.60
2018-01-13T15:15:24.598Z,56.50
2018-01-13T15:18:00.169Z,56.70
2018-01-13T15:20:38.091Z,56.70
2018-01-13T15:23:07.688Z,56.90
2018-01-13T15:25:37.017Z,57.60
2018-01-13T15:28:06.527Z,57.80
2018-01-13T15:30:36.582Z,57.90
2018-01-13T15:33:07.419Z,57.60
2018-01-13T15:35:37.803Z,57.40
2018-01-13T15:38:07.210Z,57.40
2018-01-13T15:40:36.851Z,57.50
2018-01-13T15:43:07.362Z,57.50
2018-01-13T15:45:36.692Z,57.50
2018-01-13T15:48:06.841Z,57.40
2018-01-13T15:50:36.348Z,57.40
2018-01-13T15:53:06.932Z,57.10
2018-01-13T15:55:37.096Z,57.10
2018-01-13T15:58:06.601Z,57.00
2018-01-13T16:00:36.166Z,56.90
2018-01-13T16:03:06.380Z,56.20
2018-01-13T16:05:37.306Z,56.00
2018-01-13T16:08:06.572Z,55.90
2018-01-13T16:10:36.210Z,55.80
2018-01-13T16:13:06.131Z,55.70
2018-01-13T16:15:35.853Z,55.60
2018-01-13T16:18:05.422Z,55.20
2018-01-13T16:20:35.530Z,55.20
2018-01-13T16:23:07.748Z,55.10
2018-01-13T16:25:37.980Z,55.30
2018-01-13T16:28:09.639Z,55.30
2018-01-13T16:30:40.066Z,55.30
2018-01-13T16:33:10.820Z,55.20
2018-01-13T16:35:40.114Z,55.20
2018-01-13T16:38:10.334Z,55.30
2018-01-13T16:40:40.523Z,55.50
2018-01-13T16:43:10.166Z,55.40
2018-01-13T16:45:40.539Z,56.10
2018-01-13T16:48:18.951Z,56.30
2018-01-13T16:50:48.786Z,56.30
2018-01-13T16:53:29.910Z,56.50
2018-01-13T16:55:59.495Z,56.10
2018-01-13T16:58:28.798Z,56.80
2018-01-13T17:00:59.814Z,57.20
2018-01-13T17:03:29.132Z,57.20
2018-01-13T17:05:59.176Z,57.40
2018-01-13T17:08:28.621Z,57.30
2018-01-13T17:10:58.036Z,57.60
2018-01-13T17:13:27.672Z,57.60
2018-01-13T17:15:57.712Z,45.90
2018-01-13T17:18:27.075Z,45.90
2018-01-13T17:20:56.374Z,42.10
2018-01-13T17:23:26.004Z,44.30
2018-01-13T17:25:56.216Z,44.10
2018-01-13T17:28:25.717Z,44.10
2018-01-13T17:30:56.044Z,56.20
2018-01-13T17:33:58.480Z,55.70
2018-01-13T17:36:27.942Z,39.50
2018-01-13T17:38:58.107Z,40.40
2018-01-13T17:41:27.433Z,40.30
2018-01-13T17:43:56.880Z,43.60
2018-01-13T17:46:27.085Z,47.80
2018-01-13T17:48:57.307Z,48.70
2018-01-13T17:51:26.836Z,48.70
2018-01-13T17:53:56.201Z,50.10
2018-01-13T17:56:25.602Z,51.40
2018-01-13T17:58:54.884Z,52.00
2018-01-13T18:01:24.573Z,52.50
2018-01-13T18:03:53.832Z,53.00
2018-01-13T18:06:23.269Z,53.40
2018-01-13T18:08:52.543Z,53.90
2018-01-13T18:11:22.588Z,54.20
2018-01-13T18:13:52.027Z,54.20
2018-01-13T18:16:21.309Z,54.40
2018-01-13T18:18:52.635Z,54.80
2018-01-13T18:21:21.922Z,54.80
2018-01-13T18:23:52.787Z,55.20
2018-01-13T18:26:22.074Z,55.20
2018-01-13T18:28:52.415Z,55.50
2018-01-13T18:31:22.149Z,55.40
2018-01-13T18:33:51.430Z,55.30
2018-01-13T18:36:20.821Z,55.50
2018-01-13T18:38:50.336Z,55.60
2018-01-13T18:41:19.658Z,56.00
2018-01-13T18:43:49.545Z,55.80
2018-01-13T18:46:18.950Z,55.60
2018-01-13T18:48:48.273Z,55.50
2018-01-13T18:51:18.074Z,55.50
2018-01-13T18:53:47.624Z,55.50
2018-01-13T18:56:17.668Z,55.80
2018-01-13T18:58:47.112Z,55.80
2018-01-13T19:01:17.628Z,55.30
2018-01-13T19:03:47.288Z,55.20
2018-01-13T19:06:17.318Z,55.10
2018-01-13T19:08:47.481Z,55.30
2018-01-13T19:11:17.494Z,55.30
2018-01-13T19:13:46.881Z,55.20
2018-01-13T19:16:15.918Z,55.10
2018-01-13T19:18:45.238Z,55.30
2018-01-13T19:21:15.315Z,56.00
2018-01-13T19:23:44.593Z,55.90
2018-01-13T19:26:14.141Z,56.00
2018-01-13T19:28:44.226Z,55.80
2018-01-13T19:31:14.173Z,55.70
2018-01-13T19:33:44.226Z,55.60
2018-01-13T19:36:13.698Z,55.80
2018-01-13T19:38:43.062Z,55.80
2018-01-13T19:41:12.369Z,55.70
2018-01-13T19:43:42.173Z,55.90
2018-01-13T19:46:12.328Z,56.00
2018-01-13T19:48:42.414Z,56.00
2018-01-13T19:51:12.562Z,56.00
2018-01-13T19:53:42.000Z,56.00
2018-01-13T19:56:12.514Z,55.80
2018-01-13T19:58:41.882Z,55.80
2018-01-13T20:01:11.445Z,55.80
2018-01-13T20:03:41.625Z,56.10
2018-01-13T20:06:11.211Z,56.10
2018-01-13T20:08:40.511Z,56.60
2018-01-13T20:11:10.017Z,56.00
2018-01-13T20:13:39.552Z,56.00
2018-01-13T20:16:08.856Z,56.20
2018-01-13T20:18:38.536Z,55.80
2018-01-13T20:21:08.134Z,56.10
2018-01-13T20:23:37.401Z,56.10
2018-01-13T20:26:07.666Z,56.30
2018-01-13T20:28:37.136Z,56.30
2018-01-13T20:31:07.196Z,56.60
2018-01-13T20:33:36.490Z,56.40
2018-01-13T20:36:05.783Z,56.60
2018-01-13T20:38:35.049Z,56.70
2018-01-13T20:41:05.138Z,56.90
2018-01-13T20:43:34.392Z,56.90
2018-01-13T20:46:03.711Z,56.90
2018-01-13T20:48:32.990Z,56.90
2018-01-13T20:51:03.222Z,57.00
2018-01-13T20:53:32.568Z,57.00
2018-01-13T20:56:01.848Z,57.10
2018-01-13T20:58:31.206Z,57.20
2018-01-13T21:01:01.540Z,57.30
2018-01-13T21:03:30.880Z,57.20
2018-01-13T21:06:00.162Z,57.00
2018-01-13T21:08:29.641Z,57.80
2018-01-13T21:10:59.729Z,57.50
2018-01-13T21:13:29.338Z,57.50
2018-01-13T21:15:58.606Z,57.40
2018-01-13T21:18:27.899Z,57.30
2018-01-13T21:20:57.173Z,57.60
2018-01-13T21:23:27.241Z,57.60
2018-01-13T21:25:56.517Z,57.60
2018-01-13T21:28:26.014Z,57.80
2018-01-13T21:30:55.425Z,57.40
2018-01-13T21:33:24.704Z,57.40
2018-01-13T21:35:54.769Z,58.00
2018-01-13T21:38:24.028Z,57.90
2018-01-13T21:40:53.406Z,57.80
2018-01-13T21:43:23.486Z,58.00
2018-01-13T21:45:52.928Z,58.00
2018-01-13T21:48:22.968Z,58.20
2018-01-13T21:50:52.596Z,58.20
2018-01-13T21:53:21.922Z,58.00
2018-01-13T21:55:51.708Z,58.10
2018-01-13T21:58:21.236Z,57.90
2018-01-13T22:00:50.501Z,58.20
2018-01-13T22:03:19.797Z,58.20
2018-01-13T22:05:49.853Z,58.30
2018-01-13T22:08:19.158Z,58.10
2018-01-13T22:10:48.456Z,58.00
2018-01-13T22:13:17.740Z,58.00
2018-01-13T22:15:47.157Z,58.00
2018-01-13T22:18:16.472Z,58.20
2018-01-13T22:20:45.794Z,58.10
2018-01-13T22:23:15.540Z,58.30
2018-01-13T22:25:44.868Z,58.10
2018-01-13T22:28:14.368Z,58.10
2018-01-13T22:30:43.663Z,58.30
2018-01-13T22:33:13.036Z,59.10
2018-01-13T22:35:43.090Z,58.50
2018-01-13T22:38:12.391Z,58.40
2018-01-13T22:40:41.675Z,58.70
2018-01-13T22:43:10.991Z,58.80
2018-01-13T22:45:43.269Z,58.70
2018-01-13T22:48:12.666Z,58.50
2018-01-13T22:50:41.960Z,58.30
2018-01-13T22:53:11.603Z,58.40
2018-01-13T22:55:40.882Z,58.50
2018-01-13T22:58:10.174Z,58.70
2018-01-13T23:00:55.273Z,58.60
2018-01-13T23:03:24.574Z,58.90
2018-01-13T23:05:54.762Z,58.70
2018-01-13T23:08:24.055Z,58.70
2018-01-13T23:10:53.344Z,58.90
2018-01-13T23:13:22.766Z,59.50
2018-01-13T23:15:52.240Z,59.00
2018-01-13T23:18:22.481Z,58.90
2018-01-13T23:20:51.938Z,58.80
2018-01-13T23:23:21.499Z,58.70
2018-01-13T23:25:50.791Z,58.60
2018-01-13T23:28:20.081Z,58.80
2018-01-13T23:30:50.139Z,59.00
2018-01-13T23:33:19.850Z,59.00
2018-01-13T23:35:49.100Z,58.90
2018-01-13T23:38:19.157Z,59.00
2018-01-13T23:40:48.510Z,59.00
2018-01-13T23:43:18.715Z,59.10
2018-01-13T23:45:47.995Z,59.10
2018-01-13T23:48:17.378Z,59.40
2018-01-13T23:50:46.662Z,59.40
2018-01-13T23:53:15.934Z,59.30
2018-01-13T23:55:45.381Z,59.30
2018-01-13T23:58:14.654Z,59.50
